Terminal Aerodrome Forecast
Issued by NWS Cleveland, OH

Home | Current Version | Previous Version | Graphics & Text | Print | Product List | Glossary On
Versions: 1 2 3 4 5 6 7 8 9 10 11 12 13 14 15 16 17 18 19
000
FTUS41 KCLE 191100
TAFERI
TAF
KERI 191120Z 1912/2012 34009KT P6SM OVC040
     FM191600 32008KT P6SM BKN040
     FM192000 28008KT P6SM SCT040 BKN250
     FM192200 25008KT P6SM BKN250
     FM200300 20008KT P6SM SCT100 OVC250
     FM200900 20009KT P6SM OVC100=

USA.gov is the U.S. government's official web portal to all federal, state and local government web resources and services.